Startpagina
METAR-TAF:

METAR-TAF

Vliegvelden :

Luchthaven Łódź-Lublinek

Łódź, Polen

breedte: 51-43-19N, lengte: 019-23-53E, hoogte: 184 m

Actueel weer

Dit bericht is 36 minuten geleden gemaakt, om 23:00 UTC
Wind 1 kt uit variabele richting
Temperatuur 17°C
Vochtigheid 94%
Druk 1021 hPa
Zicht: 6000 m
Ondiepe mist

METAR: EPLL 182300Z VRB01KT 6000 MIFG NSC 17/16 Q1021

Tijdstip: 01:36 (23:36 UTC)

Verwachting

Dit bericht is 6 uur en het 6 minuten geleden gemaakt, om 17:30 UTC
Verwachting geldig van 18 om 18 UTC tot 19 om 18 UTC
Wind 4 kt uit variabele richting
Zicht 10 km of meer
geen wolken onder 1500 m en geen cumulonimbus
Tijdelijke
van 18 om 18 UTC tot 18 om 21 UTC
Zicht: 4500 m
Gebroken wolken op 4000 ft, Cumulonimbus.
onweer, regen
Kans 40%
van 19 om 01 UTC tot 19 om 06 UTC
Zicht: 2500 m
Gebroken wolken op 300 ft
nevel

TAF: EPLL 181730Z 1818/1918 VRB04KT CAVOK TEMPO 1818/1821 4500 TSRA BKN040CB PROB40 1901/1906 2500 BR BKN003

Waarnemingen en weersverwachtingen van meer dan 4000 vliegvelden (METAR en TAF).

De beschikbare stations zijn de gele en rode punten op de kaart.

Ga met uw muis naar het station om de naam te zien.

Klik dan om waarnemingen en weersverwachtingen te zien.

kaart wijzigen: klik op de groene knoppen met een zwart kruis om in te zoomen, op de groene knop met een streepje om uit te zoomen of op de groene pijlen voor aangrenzende kaarten.


METAR-TAF: